Terminal Aerodrome Forecast
Issued by NWS

Home | Current Version | Previous Version | Text Only | Print | Product List | Glossary On
Versions: 1 2 3 4 5 6 7 8 9 10 11 12 13 14
082
FTUS46 KLOX 211124
TAFOXR
TAF
KOXR 211124Z 2112/2212 VRB03KT P6SM BKN250
     FM211400 06008KT P6SM BKN250
     FM212000 27008KT P6SM SCT250
     FM220200 VRB03KT P6SM SCT250
     FM221000 05006KT P6SM SCT250=

USA.gov is the U.S. government's official web portal to all federal, state and local government web resources and services.